Αρχική σελίδα
METAR-TAF:

METAR-TAF

Αεροδρόμια :

Chanute, Κάνσας, Ηνωμένες Πολιτείες Αμερικής

γεωγραφικό πλάτος: 37-40-13N, γεωγραφικό μήκος: 095-29-03W, υψόμετρο: 305 μ

Παρών καιρός

Η αναφορά έγινε 31 λεπτά πριν, στις 10:52 UTC
Άνεμος 7 kt από Ν
Θερμοκρασία 22°C
Υγρασία 94%
Πίεση 1014 hPa
Ορατότητα: 16.1 χλμ
Καθαρός ουρανός

METAR: KCNU 191052Z AUTO 17007KT 10SM CLR 22/21 A2993 RMK AO2 SLP123 T02220211

Χρόνος: 06:23 (11:23 UTC)

Πρόγνωση Καιρού

Η αναφορά έγινε 6 ώρες και 3 λεπτά πριν, στις 05:20 UTC
Η πρόγνωση ισχύει από τις 19 στις 06 UTC έως τις 20 στις 06 UTC
Άνεμος 6 kt από Ν/NA
Ορατότητα: 10 χλμ
Καθαρός ουρανός
Από 19 στις 1800 UTC
Άνεμος 12 kt από Ν με ριπές μέχρι 18 kt
Ορατότητα: 10 χλμ
Λίγα νέφη σε ύψος 25000 πόδια
Από 20 στις 0100 UTC
Άνεμος 9 kt από Ν
Ορατότητα: 10 χλμ
Καθαρός ουρανός

TAF: KCNU 190520Z 1906/2006 16006KT P6SM SKC FM191800 19012G18KT P6SM FEW250 FM200100 17009KT P6SM SKC

Μετεωρολογικές αναφορές και προγνώσεις για περισσότερα από 4000 αεροδρόμια (δελτία METAR και TAF).

Οι διαθέσιμοι σταθμοί απεικονίζονται στο χάρτη με κίτρινες και κόκκινες κουκκίδες.

Μετακινήστε το ποντίκι πάνω από τις κουκκίδες για να δείτε το όνομα του σταθμού.

Στη συνέχεια, κάντε κλικ για να δείτε τις μετεωρολογικές αναφορές και τις προγνώσεις καιρού.

Για να αλλάξετε το χάρτη: κάντε κλικ στα πράσινα κουμπιά με τον μαύρο σταυρό για να ζουμάρετε, στο πράσινο κουμπί με την παύλα για να αφαιρέσετε το ζουμ ή στα πράσινα βέλη για να αντιπαραβάλλετε χάρτες.


METAR-TAF: